createdAt,value
2018-12-30T00:01:42.380Z,2.90
2018-12-30T00:04:10.881Z,3.00
2018-12-30T00:06:40.207Z,3.00
2018-12-30T00:09:09.092Z,3.00
2018-12-30T00:11:37.915Z,3.00
2018-12-30T00:14:06.436Z,3.00
2018-12-30T00:16:34.877Z,2.90
2018-12-30T00:19:03.412Z,2.90
2018-12-30T00:21:31.909Z,2.90
2018-12-30T00:24:01.169Z,2.90
2018-12-30T00:26:29.644Z,2.90
2018-12-30T00:28:58.625Z,2.80
2018-12-30T00:31:27.076Z,2.80
2018-12-30T00:33:55.587Z,2.80
2018-12-30T00:36:24.103Z,2.80
2018-12-30T00:38:52.627Z,2.70
2018-12-30T00:41:21.136Z,2.80
2018-12-30T00:43:49.870Z,2.70
2018-12-30T00:46:18.378Z,2.70
2018-12-30T00:48:46.884Z,2.70
2018-12-30T00:51:17.227Z,2.70
2018-12-30T00:53:45.632Z,2.70
2018-12-30T00:56:14.163Z,2.70
2018-12-30T00:58:42.664Z,2.70
2018-12-30T01:01:11.180Z,2.70
2018-12-30T01:03:39.701Z,2.80
2018-12-30T01:06:08.203Z,2.70
2018-12-30T01:08:36.656Z,2.80
2018-12-30T01:11:05.470Z,2.70
2018-12-30T01:13:33.981Z,2.70
2018-12-30T01:16:02.505Z,2.80
2018-12-30T01:18:31.019Z,2.80
2018-12-30T01:20:59.661Z,2.80
2018-12-30T01:23:28.180Z,2.80
2018-12-30T01:25:58.249Z,2.80
2018-12-30T01:28:26.754Z,2.90
2018-12-30T01:30:55.180Z,3.00
2018-12-30T01:33:23.712Z,3.00
2018-12-30T01:35:52.221Z,2.90
2018-12-30T01:38:20.920Z,3.10
2018-12-30T01:40:49.446Z,3.20
2018-12-30T01:43:17.952Z,3.20
2018-12-30T01:45:46.399Z,3.20
2018-12-30T01:48:14.916Z,3.10
2018-12-30T01:50:43.429Z,3.10
2018-12-30T01:53:11.949Z,3.10
2018-12-30T01:55:40.457Z,3.20
2018-12-30T01:58:08.994Z,3.20
2018-12-30T02:00:37.497Z,3.10
2018-12-30T02:03:05.919Z,3.10
2018-12-30T02:05:34.939Z,3.20
2018-12-30T02:08:03.442Z,3.20
2018-12-30T02:10:31.969Z,3.30
2018-12-30T02:13:00.484Z,3.30
2018-12-30T02:15:29.352Z,3.20
2018-12-30T02:17:58.153Z,3.30
2018-12-30T02:20:26.722Z,3.30
2018-12-30T02:22:55.251Z,3.30
2018-12-30T02:25:23.756Z,3.20
2018-12-30T02:27:52.189Z,3.20
2018-12-30T02:30:20.711Z,3.10
2018-12-30T02:32:49.228Z,3.20
2018-12-30T02:35:17.684Z,3.20
2018-12-30T02:37:46.194Z,3.20
2018-12-30T02:40:14.776Z,3.20
2018-12-30T02:42:43.310Z,3.30
2018-12-30T02:45:11.843Z,3.20
2018-12-30T02:47:40.352Z,3.20
2018-12-30T02:50:08.864Z,3.40
2018-12-30T02:52:37.374Z,3.40
2018-12-30T02:55:06.136Z,3.40
2018-12-30T02:57:34.692Z,3.60
2018-12-30T03:00:03.127Z,3.60
2018-12-30T03:02:31.688Z,3.60
2018-12-30T03:05:00.421Z,3.70
2018-12-30T03:07:28.946Z,3.60
2018-12-30T03:09:57.373Z,3.60
2018-12-30T03:12:25.902Z,3.60
2018-12-30T03:14:54.408Z,3.50
2018-12-30T03:17:22.928Z,3.60
2018-12-30T03:19:51.372Z,3.70
2018-12-30T03:22:19.818Z,3.70
2018-12-30T03:24:48.244Z,3.80
2018-12-30T03:27:16.703Z,3.80
2018-12-30T03:29:45.124Z,3.70
2018-12-30T03:32:13.573Z,3.70
2018-12-30T03:34:42.102Z,3.70
2018-12-30T03:37:10.524Z,3.60
2018-12-30T03:39:39.108Z,3.60
2018-12-30T03:42:07.545Z,3.70
2018-12-30T03:44:35.974Z,3.60
2018-12-30T03:47:04.485Z,3.70
2018-12-30T03:49:32.995Z,3.80
2018-12-30T03:52:08.256Z,3.60
2018-12-30T03:54:31.649Z,3.70
2018-12-30T03:57:00.104Z,3.80
2018-12-30T03:59:28.534Z,3.80
2018-12-30T04:01:56.961Z,3.70
2018-12-30T04:04:25.417Z,3.70
2018-12-30T04:06:53.848Z,3.70
2018-12-30T04:09:22.282Z,3.70
2018-12-30T04:11:50.744Z,3.70
2018-12-30T04:14:19.241Z,3.80
2018-12-30T04:16:47.675Z,3.80
2018-12-30T04:19:16.129Z,3.80
2018-12-30T04:21:44.651Z,3.80
2018-12-30T04:24:13.093Z,3.80
2018-12-30T04:26:41.563Z,3.80
2018-12-30T04:29:10.070Z,3.90
2018-12-30T04:31:38.512Z,3.80
2018-12-30T04:34:07.008Z,3.90
2018-12-30T04:36:35.432Z,3.80
2018-12-30T04:39:05.409Z,3.80
2018-12-30T04:41:33.869Z,3.80
2018-12-30T04:44:02.376Z,3.90
2018-12-30T04:46:30.809Z,3.90
2018-12-30T04:48:59.257Z,3.90
2018-12-30T04:51:27.716Z,3.90
2018-12-30T04:53:56.140Z,4.00
2018-12-30T04:56:24.589Z,4.00
2018-12-30T04:58:53.022Z,4.00
2018-12-30T05:01:21.442Z,4.10
2018-12-30T05:03:49.892Z,4.00
2018-12-30T05:06:18.320Z,4.00
2018-12-30T05:08:46.768Z,4.10
2018-12-30T05:11:15.596Z,4.10
2018-12-30T05:13:44.004Z,4.20
2018-12-30T05:16:12.451Z,4.10
2018-12-30T05:18:41.482Z,4.20
2018-12-30T05:21:09.985Z,4.20
2018-12-30T05:23:38.460Z,4.20
2018-12-30T05:26:06.894Z,4.30
2018-12-30T05:28:35.429Z,4.30
2018-12-30T05:31:03.947Z,4.30
2018-12-30T05:33:32.377Z,4.30
2018-12-30T05:36:00.811Z,4.30
2018-12-30T05:38:29.258Z,4.30
2018-12-30T05:40:57.679Z,4.30
2018-12-30T05:43:26.132Z,4.30
2018-12-30T05:45:54.580Z,4.30
2018-12-30T05:48:23.011Z,4.30
2018-12-30T05:50:51.446Z,4.40
2018-12-30T05:53:19.893Z,4.40
2018-12-30T05:55:48.404Z,4.50
2018-12-30T05:58:16.951Z,4.40
2018-12-30T06:00:45.540Z,4.50
2018-12-30T06:03:13.974Z,4.40
2018-12-30T06:05:42.428Z,4.50
2018-12-30T06:08:10.884Z,4.50
2018-12-30T06:10:39.336Z,4.50
2018-12-30T06:13:07.772Z,4.40
2018-12-30T06:15:36.201Z,4.50
2018-12-30T06:18:04.648Z,4.50
2018-12-30T06:20:33.073Z,4.50
2018-12-30T06:23:01.506Z,4.50
2018-12-30T06:25:29.958Z,4.50
2018-12-30T06:27:58.384Z,4.70
2018-12-30T06:30:26.808Z,4.70
2018-12-30T06:32:55.267Z,4.70
2018-12-30T06:35:23.704Z,4.60
2018-12-30T06:37:52.196Z,4.60
2018-12-30T06:40:20.644Z,4.70
2018-12-30T06:42:49.083Z,4.50
2018-12-30T06:45:17.512Z,4.50
2018-12-30T06:47:45.967Z,4.50
2018-12-30T06:50:14.408Z,4.50
2018-12-30T06:52:42.848Z,4.50
2018-12-30T06:55:11.299Z,4.50
2018-12-30T06:57:39.729Z,4.60
2018-12-30T07:00:08.186Z,4.60
2018-12-30T07:02:36.656Z,4.60
2018-12-30T07:05:05.523Z,4.50
2018-12-30T07:07:33.948Z,4.50
2018-12-30T07:10:02.428Z,4.60
2018-12-30T07:12:30.852Z,4.50
2018-12-30T07:14:59.300Z,4.50
2018-12-30T07:17:27.739Z,4.50
2018-12-30T07:19:56.202Z,4.50
2018-12-30T07:22:24.625Z,4.50
2018-12-30T07:24:53.056Z,4.50
2018-12-30T07:27:21.660Z,4.50
2018-12-30T07:29:50.112Z,4.60
2018-12-30T07:32:18.569Z,4.70
2018-12-30T07:34:47.047Z,4.70
2018-12-30T07:37:15.490Z,4.60
2018-12-30T07:39:44.000Z,4.70
2018-12-30T07:42:12.451Z,4.50
2018-12-30T07:44:40.884Z,4.50
2018-12-30T07:47:09.327Z,4.50
2018-12-30T07:49:37.805Z,4.60
2018-12-30T07:52:06.245Z,4.60
2018-12-30T07:54:34.673Z,4.70
2018-12-30T07:57:03.130Z,4.80
2018-12-30T07:59:31.596Z,4.60
2018-12-30T08:02:00.046Z,4.70
2018-12-30T08:04:28.560Z,4.70
2018-12-30T08:06:56.991Z,4.70
2018-12-30T08:09:25.441Z,4.70
2018-12-30T08:11:53.869Z,4.70
2018-12-30T08:14:22.381Z,4.80
2018-12-30T08:16:50.823Z,4.80
2018-12-30T08:19:19.251Z,4.80
2018-12-30T08:21:47.802Z,4.90
2018-12-30T08:24:16.313Z,4.90
2018-12-30T08:26:44.833Z,4.80
2018-12-30T08:29:13.302Z,4.90
2018-12-30T08:31:41.808Z,4.90
2018-12-30T08:34:10.248Z,4.90
2018-12-30T08:36:38.697Z,5.20
2018-12-30T08:39:07.576Z,5.30
2018-12-30T08:41:36.012Z,5.20
2018-12-30T08:44:04.468Z,5.20
2018-12-30T08:46:32.918Z,5.10
2018-12-30T08:49:01.342Z,5.10
2018-12-30T08:51:29.792Z,5.20
2018-12-30T08:53:58.312Z,5.20
2018-12-30T08:56:26.740Z,5.40
2018-12-30T08:58:55.188Z,5.20
2018-12-30T09:01:28.436Z,5.00
2018-12-30T09:03:53.796Z,5.00
2018-12-30T09:06:22.262Z,5.10
2018-12-30T09:08:50.769Z,5.10
2018-12-30T09:11:19.284Z,5.10
2018-12-30T09:13:47.744Z,5.10
2018-12-30T09:16:16.294Z,5.10
2018-12-30T09:18:44.711Z,5.10
2018-12-30T09:21:13.168Z,5.30
2018-12-30T09:23:41.593Z,5.30
2018-12-30T09:26:10.030Z,5.40
2018-12-30T09:28:38.511Z,5.40
2018-12-30T09:31:07.015Z,5.40
2018-12-30T09:33:35.531Z,5.50
2018-12-30T09:36:04.258Z,5.50
2018-12-30T09:38:32.706Z,5.60
2018-12-30T09:41:01.161Z,5.70
2018-12-30T09:43:29.686Z,5.70
2018-12-30T09:45:58.111Z,5.70
2018-12-30T09:48:33.576Z,5.60
2018-12-30T09:50:56.889Z,5.60
2018-12-30T09:53:25.428Z,5.70
2018-12-30T09:55:53.853Z,5.90
2018-12-30T09:58:22.304Z,5.90
2018-12-30T10:00:50.815Z,6.00
2018-12-30T10:03:19.248Z,6.10
2018-12-30T10:05:47.694Z,6.20
2018-12-30T10:08:16.128Z,6.10
2018-12-30T10:10:44.586Z,5.90
2018-12-30T10:13:13.087Z,6.00
2018-12-30T10:15:41.659Z,6.00
2018-12-30T10:18:10.117Z,6.00
2018-12-30T10:20:38.540Z,6.10
2018-12-30T10:23:06.980Z,6.20
2018-12-30T10:25:35.456Z,6.10
2018-12-30T10:28:03.991Z,6.10
2018-12-30T10:30:32.545Z,6.10
2018-12-30T10:33:01.007Z,6.20
2018-12-30T10:35:29.424Z,6.20
2018-12-30T10:37:57.860Z,6.20
2018-12-30T10:40:26.320Z,6.20
2018-12-30T10:42:54.740Z,6.10
2018-12-30T10:45:23.175Z,6.10
2018-12-30T10:47:51.652Z,6.10
2018-12-30T10:50:20.094Z,6.30
2018-12-30T10:52:48.529Z,6.40
2018-12-30T10:55:16.974Z,6.40
2018-12-30T10:57:45.402Z,6.30
2018-12-30T11:00:13.904Z,6.40
2018-12-30T11:02:42.592Z,6.30
2018-12-30T11:05:11.065Z,6.40
2018-12-30T11:07:39.602Z,6.10
2018-12-30T11:10:08.104Z,6.20
2018-12-30T11:12:36.535Z,6.30
2018-12-30T11:15:06.048Z,6.20
2018-12-30T11:17:34.511Z,6.10
2018-12-30T11:20:03.038Z,6.10
2018-12-30T11:22:31.486Z,6.10
2018-12-30T11:24:59.946Z,6.00
2018-12-30T11:27:28.368Z,6.00
2018-12-30T11:29:56.818Z,6.20
2018-12-30T11:32:25.713Z,6.10
2018-12-30T11:34:54.416Z,6.10
2018-12-30T11:37:22.852Z,6.20
2018-12-30T11:39:51.367Z,6.20
2018-12-30T11:42:19.811Z,6.20
2018-12-30T11:44:48.238Z,6.10
2018-12-30T11:47:16.707Z,6.00
2018-12-30T11:49:45.139Z,6.00
2018-12-30T11:52:13.563Z,6.00
2018-12-30T11:54:42.034Z,6.00
2018-12-30T11:57:10.482Z,6.00
2018-12-30T11:59:38.916Z,5.90
2018-12-30T12:02:07.404Z,6.10
2018-12-30T12:04:35.832Z,6.10
2018-12-30T12:07:04.272Z,6.10
2018-12-30T12:09:32.773Z,6.00
2018-12-30T12:12:01.262Z,6.00
2018-12-30T12:14:29.741Z,5.90
2018-12-30T12:16:58.184Z,6.00
2018-12-30T12:19:26.652Z,6.10
2018-12-30T12:21:55.078Z,6.00
2018-12-30T12:24:24.436Z,5.90
2018-12-30T12:26:53.332Z,5.90
2018-12-30T12:29:21.768Z,6.00
2018-12-30T12:31:50.269Z,5.90
2018-12-30T12:34:18.737Z,5.80
2018-12-30T12:36:47.268Z,5.80
2018-12-30T12:39:15.744Z,5.80
2018-12-30T12:41:44.212Z,5.70
2018-12-30T12:44:12.653Z,5.80
2018-12-30T12:46:41.109Z,5.80
2018-12-30T12:49:09.653Z,5.90
2018-12-30T12:51:38.161Z,5.90
2018-12-30T12:54:06.593Z,5.80
2018-12-30T12:56:35.069Z,5.80
2018-12-30T12:59:03.555Z,5.80
2018-12-30T13:01:31.997Z,5.80
2018-12-30T13:04:00.452Z,5.90
2018-12-30T13:06:28.890Z,5.90
2018-12-30T13:08:57.341Z,6.00
2018-12-30T13:11:25.779Z,5.90
2018-12-30T13:13:54.201Z,5.90
2018-12-30T13:16:22.661Z,5.80
2018-12-30T13:18:51.097Z,5.90
2018-12-30T13:21:19.549Z,5.90
2018-12-30T13:23:47.984Z,5.90
2018-12-30T13:26:16.412Z,6.00
2018-12-30T13:28:44.872Z,6.00
2018-12-30T13:31:13.383Z,5.90
2018-12-30T13:33:41.831Z,6.10
2018-12-30T13:36:10.956Z,6.00
2018-12-30T13:38:39.403Z,4.00
2018-12-30T13:41:07.837Z,5.80
2018-12-30T13:43:36.461Z,5.80
2018-12-30T13:46:04.967Z,5.70
2018-12-30T13:48:33.426Z,5.80
2018-12-30T13:51:01.876Z,5.70
2018-12-30T13:53:30.376Z,5.80
2018-12-30T13:55:58.806Z,5.80
2018-12-30T13:58:27.253Z,5.80
2018-12-30T14:00:55.748Z,5.80
2018-12-30T14:03:24.175Z,5.80
2018-12-30T14:05:52.620Z,5.80
2018-12-30T14:08:21.055Z,5.90
2018-12-30T14:10:49.540Z,5.80
2018-12-30T14:13:18.042Z,5.70
2018-12-30T14:15:50.779Z,5.80
2018-12-30T14:18:16.654Z,5.70
2018-12-30T14:20:45.080Z,5.70
2018-12-30T14:23:13.537Z,5.60
2018-12-30T14:25:41.970Z,5.60
2018-12-30T14:28:10.569Z,5.50
2018-12-30T14:30:39.019Z,5.50
2018-12-30T14:33:07.536Z,5.50
2018-12-30T14:35:35.957Z,5.60
2018-12-30T14:38:04.431Z,5.50
2018-12-30T14:40:32.918Z,5.50
2018-12-30T14:43:01.359Z,5.70
2018-12-30T14:45:29.814Z,5.60
2018-12-30T14:47:58.252Z,5.70
2018-12-30T14:50:26.754Z,5.70
2018-12-30T14:52:55.203Z,5.60
2018-12-30T14:55:23.645Z,5.60
2018-12-30T14:57:52.080Z,5.60
2018-12-30T15:00:20.540Z,5.50
2018-12-30T15:02:49.028Z,5.60
2018-12-30T15:05:17.453Z,5.50
2018-12-30T15:07:45.911Z,5.40
2018-12-30T15:10:14.342Z,5.40
2018-12-30T15:12:42.792Z,5.40
2018-12-30T15:15:11.225Z,5.50
2018-12-30T15:17:39.677Z,5.50
2018-12-30T15:20:08.384Z,5.50
2018-12-30T15:22:36.854Z,5.50
2018-12-30T15:25:11.514Z,5.40
2018-12-30T15:27:36.436Z,5.30
2018-12-30T15:30:06.904Z,5.40
2018-12-30T15:32:35.426Z,5.30
2018-12-30T15:35:04.999Z,5.30
2018-12-30T15:37:33.434Z,5.40
2018-12-30T15:40:01.886Z,5.30
2018-12-30T15:42:30.315Z,5.30
2018-12-30T15:44:58.750Z,5.20
2018-12-30T15:47:27.280Z,5.20
2018-12-30T15:49:55.713Z,5.20
2018-12-30T15:52:24.145Z,5.20
2018-12-30T15:54:53.270Z,5.20
2018-12-30T15:57:21.708Z,5.20
2018-12-30T15:59:50.146Z,5.20
2018-12-30T16:02:18.628Z,5.10
2018-12-30T16:04:47.080Z,5.20
2018-12-30T16:07:15.509Z,5.30
2018-12-30T16:09:43.968Z,5.20
2018-12-30T16:12:12.480Z,5.20
2018-12-30T16:14:41.032Z,5.20
2018-12-30T16:17:09.461Z,5.20
2018-12-30T16:19:37.911Z,5.10
2018-12-30T16:22:06.360Z,5.20
2018-12-30T16:24:34.796Z,5.20
2018-12-30T16:27:04.569Z,5.10
2018-12-30T16:29:33.179Z,5.20
2018-12-30T16:32:01.621Z,5.20
2018-12-30T16:34:30.076Z,5.20
2018-12-30T16:36:58.516Z,5.10
2018-12-30T16:39:26.949Z,5.10
2018-12-30T16:41:55.401Z,5.10
2018-12-30T16:44:23.850Z,5.10
2018-12-30T16:46:52.365Z,5.00
2018-12-30T16:49:20.816Z,5.00
2018-12-30T16:51:49.270Z,5.10
2018-12-30T16:54:17.783Z,5.10
2018-12-30T16:56:46.229Z,5.10
2018-12-30T16:59:14.732Z,5.00
2018-12-30T17:01:43.169Z,5.00
2018-12-30T17:04:11.615Z,5.00
2018-12-30T17:06:40.057Z,5.00
2018-12-30T17:09:08.529Z,5.00
2018-12-30T17:11:37.003Z,5.10
2018-12-30T17:14:05.464Z,5.00
2018-12-30T17:16:33.898Z,5.00
2018-12-30T17:19:02.361Z,5.00
2018-12-30T17:21:30.785Z,4.90
2018-12-30T17:23:59.213Z,4.90
2018-12-30T17:26:27.688Z,5.00
2018-12-30T17:28:56.141Z,5.00
2018-12-30T17:31:24.575Z,5.10
2018-12-30T17:33:53.056Z,5.10
2018-12-30T17:36:21.528Z,5.00
2018-12-30T17:38:49.961Z,5.00
2018-12-30T17:41:18.477Z,5.10
2018-12-30T17:43:46.905Z,5.10
2018-12-30T17:46:18.377Z,5.00
2018-12-30T17:48:45.520Z,5.10
2018-12-30T17:51:13.945Z,5.20
2018-12-30T17:53:42.376Z,5.00
2018-12-30T17:56:10.861Z,5.10
2018-12-30T17:58:39.288Z,5.10
2018-12-30T18:01:07.809Z,5.10
2018-12-30T18:03:36.420Z,5.00
2018-12-30T18:06:04.847Z,5.00
2018-12-30T18:08:33.294Z,5.10
2018-12-30T18:11:01.739Z,5.10
2018-12-30T18:13:30.204Z,5.00
2018-12-30T18:15:58.637Z,5.10
2018-12-30T18:18:27.080Z,5.10
2018-12-30T18:20:55.533Z,5.00
2018-12-30T18:23:23.964Z,5.00
2018-12-30T18:25:58.601Z,5.00
2018-12-30T18:28:22.570Z,5.00
2018-12-30T18:30:51.001Z,4.90
2018-12-30T18:33:19.428Z,5.00
2018-12-30T18:35:47.885Z,5.00
2018-12-30T18:38:16.403Z,5.10
2018-12-30T18:40:44.909Z,5.00
2018-12-30T18:43:13.445Z,5.00
2018-12-30T18:45:41.962Z,4.90
2018-12-30T18:48:10.385Z,4.90
2018-12-30T18:50:38.833Z,5.10
2018-12-30T18:53:07.265Z,5.10
2018-12-30T18:55:35.809Z,5.10
2018-12-30T18:58:04.246Z,5.10
2018-12-30T19:00:32.818Z,5.10
2018-12-30T19:03:01.265Z,5.00
2018-12-30T19:05:29.712Z,4.90
2018-12-30T19:07:58.149Z,4.90
2018-12-30T19:10:26.619Z,5.00
2018-12-30T19:12:55.122Z,5.00
2018-12-30T19:15:23.571Z,5.00
2018-12-30T19:17:52.028Z,5.00
2018-12-30T19:20:20.535Z,5.00
2018-12-30T19:22:48.964Z,5.00
2018-12-30T19:25:17.416Z,5.00
2018-12-30T19:27:45.840Z,5.00
2018-12-30T19:30:14.279Z,5.00
2018-12-30T19:32:42.719Z,4.90
2018-12-30T19:35:11.144Z,4.90
2018-12-30T19:37:39.571Z,4.90
2018-12-30T19:40:10.270Z,4.80
2018-12-30T19:42:38.696Z,4.80
2018-12-30T19:45:07.673Z,4.90
2018-12-30T19:47:36.132Z,4.90
2018-12-30T19:50:05.909Z,4.90
2018-12-30T19:52:34.342Z,4.90
2018-12-30T19:55:02.811Z,4.90
2018-12-30T19:57:31.243Z,5.00
2018-12-30T19:59:59.677Z,5.00
2018-12-30T20:02:28.700Z,4.90
2018-12-30T20:04:57.177Z,4.90
2018-12-30T20:07:25.656Z,4.90
2018-12-30T20:09:54.098Z,4.90
2018-12-30T20:12:22.735Z,4.80
2018-12-30T20:14:51.168Z,4.80
2018-12-30T20:17:19.677Z,4.90
2018-12-30T20:19:48.132Z,4.90
2018-12-30T20:22:16.567Z,4.80
2018-12-30T20:24:45.018Z,4.80
2018-12-30T20:27:13.464Z,4.70
2018-12-30T20:29:41.907Z,4.70
2018-12-30T20:32:10.345Z,4.70
2018-12-30T20:34:38.859Z,4.70
2018-12-30T20:37:07.296Z,4.70
2018-12-30T20:39:35.777Z,4.60
2018-12-30T20:42:04.259Z,4.70
2018-12-30T20:44:32.692Z,4.70
2018-12-30T20:47:01.123Z,4.70
2018-12-30T20:49:29.589Z,4.70
2018-12-30T20:51:58.037Z,4.70
2018-12-30T20:54:26.600Z,4.70
2018-12-30T20:56:55.052Z,4.80
2018-12-30T20:59:23.560Z,4.70
2018-12-30T21:01:52.082Z,4.70
2018-12-30T21:04:20.620Z,4.70
2018-12-30T21:06:49.076Z,4.60
2018-12-30T21:09:17.530Z,4.70
2018-12-30T21:11:45.959Z,4.70
2018-12-30T21:14:14.404Z,4.60
2018-12-30T21:16:42.842Z,4.60
2018-12-30T21:19:11.300Z,4.70
2018-12-30T21:21:39.740Z,4.70
2018-12-30T21:24:08.188Z,4.70
2018-12-30T21:26:36.715Z,4.60
2018-12-30T21:29:05.224Z,4.70
2018-12-30T21:31:33.754Z,4.70
2018-12-30T21:34:02.221Z,4.70
2018-12-30T21:36:30.673Z,4.70
2018-12-30T21:38:59.102Z,4.80
2018-12-30T21:41:27.572Z,4.70
2018-12-30T21:43:56.077Z,4.70
2018-12-30T21:46:24.512Z,4.60
2018-12-30T21:48:52.964Z,4.60
2018-12-30T21:51:21.411Z,4.70
2018-12-30T21:53:49.846Z,4.70
2018-12-30T21:56:18.370Z,4.70
2018-12-30T21:58:46.804Z,4.70
2018-12-30T22:01:15.246Z,4.60
2018-12-30T22:03:43.717Z,4.70
2018-12-30T22:06:12.169Z,4.80
2018-12-30T22:08:40.669Z,4.80
2018-12-30T22:11:09.124Z,4.90
2018-12-30T22:13:37.570Z,4.90
2018-12-30T22:16:06.074Z,4.90
2018-12-30T22:18:34.632Z,4.90
2018-12-30T22:21:03.149Z,5.00
2018-12-30T22:23:31.739Z,4.90
2018-12-30T22:26:00.185Z,4.80
2018-12-30T22:28:28.621Z,4.80
2018-12-30T22:30:57.056Z,4.80
2018-12-30T22:33:25.511Z,4.80
2018-12-30T22:35:53.940Z,4.70
2018-12-30T22:38:22.385Z,4.80
2018-12-30T22:40:50.836Z,4.80
2018-12-30T22:43:19.276Z,4.80
2018-12-30T22:45:47.714Z,4.80
2018-12-30T22:48:16.165Z,4.80
2018-12-30T22:50:45.777Z,4.80
2018-12-30T22:53:14.368Z,4.80
2018-12-30T22:55:42.844Z,4.80
2018-12-30T22:58:11.291Z,4.70
2018-12-30T23:00:41.366Z,4.70
2018-12-30T23:03:09.900Z,4.80
2018-12-30T23:05:38.409Z,4.70
2018-12-30T23:08:07.408Z,4.70
2018-12-30T23:10:35.879Z,4.80
2018-12-30T23:13:04.321Z,4.80
2018-12-30T23:15:32.823Z,4.80
2018-12-30T23:18:01.277Z,4.80
2018-12-30T23:20:29.704Z,4.80
2018-12-30T23:22:58.140Z,4.70
2018-12-30T23:25:26.605Z,4.80
2018-12-30T23:27:55.036Z,4.80
2018-12-30T23:30:23.469Z,4.80
2018-12-30T23:32:51.924Z,4.70
2018-12-30T23:35:20.383Z,4.80
2018-12-30T23:37:48.829Z,4.80
2018-12-30T23:40:17.307Z,4.70
2018-12-30T23:42:45.741Z,4.70
2018-12-30T23:45:14.191Z,4.80
2018-12-30T23:47:42.649Z,4.80
2018-12-30T23:50:11.092Z,4.80
2018-12-30T23:52:39.558Z,4.90
2018-12-30T23:55:08.099Z,4.80
2018-12-30T23:57:36.528Z,4.80
